createdAt,value
2022-08-07T00:02:41.180Z,48.40
2022-08-07T00:05:03.915Z,48.63
2022-08-07T00:07:40.303Z,48.99
2022-08-07T00:10:26.107Z,48.73
2022-08-07T00:12:59.853Z,49.78
2022-08-07T00:15:38.619Z,50.88
2022-08-07T00:18:19.257Z,51.31
2022-08-07T00:20:50.428Z,50.00
2022-08-07T00:23:21.344Z,51.71
2022-08-07T00:25:52.085Z,50.12
2022-08-07T00:28:33.254Z,50.40
2022-08-07T00:31:06.238Z,48.10
2022-08-07T00:33:37.061Z,50.53
2022-08-07T00:36:07.963Z,52.49
2022-08-07T00:38:39.093Z,49.26
2022-08-07T00:41:09.920Z,48.74
2022-08-07T00:43:58.998Z,45.90
2022-08-07T00:46:28.761Z,46.05
2022-08-07T00:48:57.385Z,49.44
2022-08-07T00:51:57.318Z,49.49
2022-08-07T00:54:20.822Z,48.13
2022-08-07T00:56:51.976Z,47.30
2022-08-07T00:59:35.253Z,51.12
2022-08-07T01:02:14.006Z,49.71
2022-08-07T01:04:58.297Z,49.06
2022-08-07T01:07:29.232Z,47.94
2022-08-07T01:10:06.300Z,49.18
2022-08-07T01:12:53.447Z,49.03
2022-08-07T01:16:00.619Z,50.58
2022-08-07T01:18:16.608Z,53.79
2022-08-07T01:20:57.404Z,54.21
2022-08-07T01:23:36.793Z,51.64
2022-08-07T01:26:14.421Z,52.70
2022-08-07T01:28:48.350Z,54.10
2022-08-07T01:31:22.927Z,53.00
2022-08-07T01:33:55.779Z,55.33
2022-08-07T01:36:33.355Z,47.13
2022-08-07T01:39:04.197Z,53.76
2022-08-07T01:41:54.996Z,55.16
2022-08-07T01:44:29.280Z,48.26
2022-08-07T01:47:01.174Z,49.37
2022-08-07T01:49:46.174Z,47.07
2022-08-07T01:52:25.480Z,52.82
2022-08-07T01:54:58.909Z,54.48
2022-08-07T01:57:34.017Z,54.30
2022-08-07T02:00:20.205Z,53.78
2022-08-07T02:03:18.835Z,57.78
2022-08-07T02:05:59.731Z,54.27
2022-08-07T02:08:30.649Z,56.27
2022-08-07T02:11:03.579Z,55.31
2022-08-07T02:13:56.698Z,57.03
2022-08-07T02:16:28.649Z,57.29
2022-08-07T02:20:07.591Z,49.22
2022-08-07T02:21:58.891Z,53.64
2022-08-07T02:24:30.269Z,51.12
2022-08-07T02:27:02.990Z,52.98
2022-08-07T02:29:31.661Z,56.77
2022-08-07T02:32:03.287Z,55.47
2022-08-07T02:34:33.938Z,55.30
2022-08-07T02:37:08.267Z,54.94
2022-08-07T02:40:02.256Z,52.48
2022-08-07T02:42:34.561Z,51.96
2022-08-07T02:46:00.814Z,53.51
2022-08-07T02:47:57.253Z,53.71
2022-08-07T02:50:30.769Z,52.08
2022-08-07T02:53:10.965Z,54.75
2022-08-07T02:56:03.472Z,55.30
2022-08-07T02:58:34.862Z,57.39
2022-08-07T03:01:05.372Z,59.85
2022-08-07T03:03:50.062Z,60.25
2022-08-07T03:06:25.844Z,59.78
2022-08-07T03:09:06.100Z,62.22
2022-08-07T03:11:38.822Z,58.31
2022-08-07T03:14:08.366Z,61.97
2022-08-07T03:16:38.372Z,60.46
2022-08-07T03:19:08.267Z,59.48
2022-08-07T03:21:37.209Z,59.15
2022-08-07T03:24:19.307Z,59.56
2022-08-07T03:26:58.323Z,62.78
2022-08-07T03:29:44.659Z,66.40
2022-08-07T03:32:22.781Z,62.71
2022-08-07T03:35:16.608Z,61.77
2022-08-07T03:37:55.255Z,61.37
2022-08-07T03:40:27.554Z,61.41
2022-08-07T03:43:01.257Z,65.67
2022-08-07T03:45:31.957Z,66.05
2022-08-07T03:48:01.401Z,64.56
2022-08-07T03:50:30.668Z,66.25
2022-08-07T03:53:01.394Z,66.40
2022-08-07T03:55:53.076Z,63.77
2022-08-07T03:59:05.300Z,62.44
2022-08-07T04:01:13.798Z,63.92
2022-08-07T04:03:53.936Z,64.96
2022-08-07T04:06:37.118Z,67.34
2022-08-07T04:09:15.236Z,65.92
2022-08-07T04:12:26.215Z,68.47
2022-08-07T04:14:43.810Z,67.89
2022-08-07T04:17:20.175Z,67.69
2022-08-07T04:19:54.871Z,65.27
2022-08-07T04:22:28.457Z,65.97
2022-08-07T04:25:02.076Z,66.77
2022-08-07T04:27:35.760Z,65.06
2022-08-07T04:30:35.420Z,65.60
2022-08-07T04:32:58.838Z,66.36
2022-08-07T04:35:28.648Z,69.66
2022-08-07T04:38:13.447Z,70.19
2022-08-07T04:40:52.680Z,70.55
2022-08-07T04:44:13.062Z,71.03
2022-08-07T04:47:04.958Z,72.64
2022-08-07T04:50:06.279Z,72.87
2022-08-07T04:53:40.193Z,72.12
2022-08-07T04:58:14.420Z,73.14
2022-08-07T05:00:14.616Z,73.59
2022-08-07T05:02:33.645Z,75.04
2022-08-07T05:05:51.541Z,73.74
2022-08-07T05:08:14.132Z,73.84
2022-08-07T05:10:48.851Z,74.72
2022-08-07T05:14:55.703Z,74.99
2022-08-07T05:16:22.954Z,76.32
2022-08-07T05:19:00.575Z,75.23
2022-08-07T05:21:59.365Z,75.51
2022-08-07T05:24:24.635Z,77.16
2022-08-07T05:27:01.446Z,78.14
2022-08-07T05:29:41.091Z,75.44
2022-08-07T05:32:26.172Z,75.30
2022-08-07T05:34:55.961Z,74.21
2022-08-07T05:37:25.718Z,72.24
2022-08-07T05:40:06.423Z,71.71
2022-08-07T05:42:56.355Z,75.66
2022-08-07T05:45:47.118Z,74.24
2022-08-07T05:48:16.607Z,74.23
2022-08-07T05:50:46.536Z,69.91
2022-08-07T05:54:12.564Z,71.96
2022-08-07T05:56:06.912Z,71.76
2022-08-07T05:58:39.229Z,70.62
2022-08-07T06:01:10.997Z,74.31
2022-08-07T06:03:53.488Z,74.70
2022-08-07T06:06:29.832Z,72.03
2022-08-07T06:09:04.567Z,71.32
2022-08-07T06:11:35.734Z,74.81
2022-08-07T06:14:12.684Z,73.30
2022-08-07T06:16:56.301Z,72.46
2022-08-07T06:19:52.070Z,74.13
2022-08-07T06:22:23.526Z,72.78
2022-08-07T06:24:58.445Z,73.44
2022-08-07T06:27:54.408Z,75.37
2022-08-07T06:30:32.478Z,74.50
2022-08-07T06:33:12.648Z,75.49
2022-08-07T06:36:06.227Z,75.71
2022-08-07T06:38:34.984Z,76.51
2022-08-07T06:41:09.608Z,75.90
2022-08-07T06:43:46.153Z,73.98
2022-08-07T06:46:20.458Z,74.27
2022-08-07T06:49:00.413Z,73.71
2022-08-07T06:51:34.250Z,72.60
2022-08-07T06:55:27.407Z,72.97
2022-08-07T06:56:57.352Z,73.81
2022-08-07T07:00:14.211Z,73.21
2022-08-07T07:02:48.656Z,74.36
2022-08-07T07:05:12.683Z,73.92
2022-08-07T07:07:59.336Z,74.51
2022-08-07T07:10:35.788Z,76.07
2022-08-07T07:13:41.647Z,77.56
2022-08-07T07:16:23.506Z,79.15
2022-08-07T07:19:40.930Z,78.96
2022-08-07T07:22:12.035Z,78.11
2022-08-07T07:25:03.126Z,78.59
2022-08-07T07:27:55.592Z,78.32
2022-08-07T07:30:40.121Z,78.59
2022-08-07T07:33:12.558Z,78.82
2022-08-07T07:35:54.678Z,79.03
2022-08-07T07:38:36.101Z,78.83
2022-08-07T07:41:08.546Z,78.32
2022-08-07T07:44:14.613Z,78.71
2022-08-07T07:46:38.577Z,78.13
2022-08-07T07:50:32.963Z,78.20
2022-08-07T07:52:15.902Z,77.96
2022-08-07T07:54:50.750Z,78.47
2022-08-07T07:57:43.660Z,77.99
2022-08-07T08:00:20.862Z,77.96
2022-08-07T08:04:05.955Z,78.05
2022-08-07T08:06:11.542Z,78.18
2022-08-07T08:08:43.132Z,78.44
2022-08-07T08:11:16.657Z,79.13
2022-08-07T08:13:53.867Z,78.95
2022-08-07T08:16:50.207Z,79.20
2022-08-07T08:20:17.569Z,78.73
2022-08-07T08:22:54.388Z,77.86
2022-08-07T08:25:49.227Z,77.53
2022-08-07T08:28:38.112Z,77.51
2022-08-07T08:31:16.019Z,77.71
2022-08-07T08:33:55.519Z,76.81
2022-08-07T08:36:30.054Z,77.67
2022-08-07T08:39:04.066Z,77.78
2022-08-07T08:42:01.351Z,76.81
2022-08-07T08:44:44.374Z,76.73
2022-08-07T08:47:47.308Z,76.99
2022-08-07T08:50:39.666Z,77.45
2022-08-07T08:53:40.428Z,77.35
2022-08-07T08:56:17.466Z,77.52
2022-08-07T08:59:06.423Z,78.11
2022-08-07T09:01:52.478Z,79.63
2022-08-07T09:04:51.492Z,79.26
2022-08-07T09:07:26.299Z,79.97
2022-08-07T09:10:08.962Z,79.75
2022-08-07T09:13:01.343Z,80.18
2022-08-07T09:16:20.586Z,80.54
2022-08-07T09:19:07.283Z,80.57
2022-08-07T09:24:29.214Z,82.16
2022-08-07T09:25:14.889Z,81.75
2022-08-07T09:30:06.178Z,81.59
2022-08-07T09:31:26.928Z,82.57
2022-08-07T09:34:41.724Z,83.08
2022-08-07T09:37:47.956Z,82.88
2022-08-07T09:40:18.345Z,82.22
2022-08-07T09:42:57.045Z,81.94
2022-08-07T09:47:24.304Z,82.64
2022-08-07T09:50:00.616Z,82.79
2022-08-07T09:52:34.228Z,81.62
2022-08-07T09:55:36.858Z,82.13
2022-08-07T09:58:48.829Z,82.47
2022-08-07T10:01:53.209Z,82.63
2022-08-07T10:04:52.792Z,82.82
2022-08-07T10:07:39.942Z,82.96
2022-08-07T10:14:23.113Z,82.60
2022-08-07T10:18:00.436Z,83.70
2022-08-07T10:20:34.318Z,83.38
2022-08-07T10:24:05.955Z,82.95
2022-08-07T10:26:34.153Z,84.02
2022-08-07T10:29:21.536Z,85.31
2022-08-07T10:32:36.804Z,85.27
2022-08-07T10:35:53.440Z,85.59
2022-08-07T10:38:46.427Z,85.77
2022-08-07T10:41:52.368Z,85.77
2022-08-07T10:44:38.686Z,85.63
2022-08-07T10:47:27.107Z,85.71
2022-08-07T10:50:31.210Z,86.05
2022-08-07T10:53:11.527Z,85.97
2022-08-07T10:56:21.016Z,86.08
2022-08-07T10:59:22.190Z,86.69
2022-08-07T11:02:05.110Z,87.08
2022-08-07T11:05:08.565Z,86.96
2022-08-07T11:07:58.582Z,87.71
2022-08-07T11:11:07.705Z,87.55
2022-08-07T11:14:44.240Z,87.45
2022-08-07T11:17:01.884Z,87.68
2022-08-07T11:19:39.012Z,88.29
2022-08-07T11:22:18.837Z,87.92
2022-08-07T11:25:06.511Z,88.18
2022-08-07T11:28:02.450Z,88.28
2022-08-07T11:30:44.751Z,88.21
2022-08-07T11:33:59.311Z,88.49
2022-08-07T11:36:44.985Z,88.68
2022-08-07T11:40:00.535Z,88.46
2022-08-07T11:43:09.019Z,88.89
2022-08-07T11:46:11.684Z,88.92
2022-08-07T11:49:50.112Z,89.31
2022-08-07T11:52:37.694Z,89.80
2022-08-07T11:56:25.484Z,89.95
2022-08-07T11:58:49.690Z,89.86
2022-08-07T12:01:59.756Z,90.10
2022-08-07T12:04:32.516Z,89.87
2022-08-07T12:07:09.059Z,90.09
2022-08-07T12:09:57.455Z,90.25
2022-08-07T12:12:45.390Z,89.90
2022-08-07T12:16:05.294Z,89.95
2022-08-07T12:18:46.224Z,90.20
2022-08-07T12:22:38.121Z,90.52
2022-08-07T12:26:23.083Z,90.45
2022-08-07T12:28:31.060Z,90.33
2022-08-07T12:31:10.981Z,90.56
2022-08-07T12:33:56.058Z,90.37
2022-08-07T12:36:32.764Z,90.57
2022-08-07T12:39:09.339Z,90.71
2022-08-07T12:41:56.743Z,90.51
2022-08-07T12:44:29.489Z,90.94
2022-08-07T12:47:21.752Z,90.64
2022-08-07T12:50:39.427Z,90.36
2022-08-07T12:53:27.505Z,90.13
2022-08-07T12:56:17.995Z,90.09
2022-08-07T12:58:53.150Z,89.70
2022-08-07T13:01:32.454Z,89.81
2022-08-07T13:04:34.536Z,89.60
2022-08-07T13:08:14.485Z,89.08
2022-08-07T13:10:39.575Z,89.00
2022-08-07T13:13:47.408Z,88.49
2022-08-07T13:16:50.721Z,87.64
2022-08-07T13:19:50.252Z,87.30
2022-08-07T13:22:33.427Z,86.53
2022-08-07T13:25:29.116Z,86.41
2022-08-07T13:28:18.455Z,86.17
2022-08-07T13:31:01.965Z,85.56
2022-08-07T13:34:31.338Z,85.03
2022-08-07T13:36:52.462Z,84.38
2022-08-07T13:40:34.047Z,84.79
2022-08-07T13:42:27.067Z,84.81
2022-08-07T13:45:20.916Z,85.09
2022-08-07T13:48:06.076Z,82.98
2022-08-07T13:50:44.794Z,82.54
2022-08-07T13:53:35.928Z,81.92
2022-08-07T13:56:35.624Z,81.36
2022-08-07T13:59:21.671Z,80.47
2022-08-07T14:02:04.069Z,80.35
2022-08-07T14:04:47.455Z,80.74
2022-08-07T14:07:23.084Z,80.82
2022-08-07T14:10:17.639Z,81.68
2022-08-07T14:13:09.203Z,82.22
2022-08-07T14:15:41.124Z,82.25
2022-08-07T14:18:30.734Z,81.02
2022-08-07T14:21:08.358Z,79.98
2022-08-07T14:24:10.981Z,76.13
2022-08-07T14:28:09.295Z,75.95
2022-08-07T14:30:11.125Z,75.09
2022-08-07T14:32:53.305Z,74.50
2022-08-07T14:35:45.665Z,73.80
2022-08-07T14:38:26.247Z,69.84
2022-08-07T14:41:14.976Z,69.67
2022-08-07T14:43:57.987Z,67.69
2022-08-07T14:46:37.393Z,67.89
2022-08-07T14:52:16.819Z,67.96
2022-08-07T14:54:46.833Z,66.03
2022-08-07T14:57:54.373Z,67.25
2022-08-07T15:00:20.491Z,66.28
2022-08-07T15:03:18.834Z,66.77
2022-08-07T15:05:54.335Z,65.64
2022-08-07T15:08:47.455Z,66.26
2022-08-07T15:11:54.153Z,63.62
2022-08-07T15:14:18.887Z,64.33
2022-08-07T15:16:54.482Z,65.49
2022-08-07T15:20:31.586Z,64.74
2022-08-07T15:22:23.076Z,64.39
2022-08-07T15:33:43.941Z,64.07
2022-08-07T15:36:14.353Z,60.92
2022-08-07T15:39:10.563Z,59.94
2022-08-07T15:44:53.200Z,59.97
2022-08-07T15:48:00.049Z,59.41
2022-08-07T15:50:37.725Z,59.48
2022-08-07T15:53:14.880Z,58.77
2022-08-07T15:56:02.724Z,56.00
2022-08-07T15:58:40.679Z,55.98
2022-08-07T16:01:38.452Z,55.82
2022-08-07T16:04:15.459Z,54.94
2022-08-07T16:06:54.723Z,53.77
2022-08-07T16:09:51.324Z,54.29
2022-08-07T16:12:39.148Z,55.70
2022-08-07T16:15:54.555Z,51.57
2022-08-07T16:18:53.748Z,52.48
2022-08-07T16:22:01.544Z,52.17
2022-08-07T16:25:04.809Z,51.00
2022-08-07T16:27:46.612Z,51.83
2022-08-07T16:30:31.485Z,51.29
2022-08-07T16:34:01.723Z,50.38
2022-08-07T16:36:19.771Z,48.80
2022-08-07T16:39:40.334Z,49.58
2022-08-07T16:42:46.703Z,49.41
2022-08-07T16:46:33.731Z,48.64
2022-08-07T16:48:58.430Z,50.36
2022-08-07T16:52:50.926Z,49.12
2022-08-07T16:55:28.807Z,49.16
2022-08-07T16:58:54.377Z,46.99
2022-08-07T17:01:21.143Z,46.58
2022-08-07T17:04:25.129Z,48.86
2022-08-07T17:06:57.995Z,48.22
2022-08-07T17:10:06.683Z,48.33
2022-08-07T17:12:45.442Z,46.03
2022-08-07T17:15:44.538Z,49.00
2022-08-07T17:18:51.308Z,47.65
2022-08-07T17:21:51.465Z,48.48
2022-08-07T17:24:48.754Z,45.91
2022-08-07T17:27:37.023Z,46.38
2022-08-07T17:30:20.487Z,47.42
2022-08-07T17:34:09.428Z,50.17
2022-08-07T17:36:20.378Z,48.88
2022-08-07T17:38:50.263Z,45.44
2022-08-07T17:42:04.913Z,45.54
2022-08-07T17:44:58.433Z,49.29
2022-08-07T17:47:53.941Z,44.38
2022-08-07T17:50:47.317Z,44.94
2022-08-07T17:54:00.795Z,43.94
2022-08-07T17:56:49.353Z,45.92
2022-08-07T17:59:27.140Z,45.15
2022-08-07T18:02:23.359Z,46.44
2022-08-07T18:05:20.828Z,44.79
2022-08-07T18:08:24.133Z,45.94
2022-08-07T18:11:53.934Z,44.81
2022-08-07T18:14:29.104Z,44.79
2022-08-07T18:18:39.714Z,44.50
2022-08-07T18:21:05.947Z,42.52
2022-08-07T18:23:21.851Z,46.47
2022-08-07T18:26:14.813Z,45.26
2022-08-07T18:28:58.199Z,45.35
2022-08-07T18:31:51.872Z,44.44
2022-08-07T18:35:01.134Z,43.83
2022-08-07T18:38:57.757Z,45.16
2022-08-07T18:40:53.483Z,45.47
2022-08-07T18:43:57.815Z,44.76
2022-08-07T18:47:00.012Z,44.24
2022-08-07T18:50:39.174Z,44.86
2022-08-07T18:53:16.458Z,42.79
2022-08-07T18:56:31.561Z,45.36
2022-08-07T18:59:46.765Z,43.80
2022-08-07T19:02:43.122Z,45.85
2022-08-07T19:06:04.028Z,42.68
2022-08-07T19:09:09.097Z,47.79
2022-08-07T19:12:05.776Z,44.97
2022-08-07T19:16:03.646Z,45.48
2022-08-07T19:18:33.999Z,44.72
2022-08-07T19:21:13.964Z,43.95
2022-08-07T19:24:02.026Z,43.02
2022-08-07T19:27:09.102Z,45.43
2022-08-07T19:30:55.426Z,44.26
2022-08-07T19:32:42.322Z,45.21
2022-08-07T19:35:22.564Z,45.65
2022-08-07T19:38:00.886Z,46.28
2022-08-07T19:40:38.181Z,46.67
2022-08-07T19:43:48.938Z,44.95
2022-08-07T19:46:15.746Z,45.24
2022-08-07T19:48:53.482Z,44.91
2022-08-07T19:51:52.323Z,46.34
2022-08-07T19:54:33.178Z,46.02
2022-08-07T19:58:01.974Z,44.43
2022-08-07T20:00:10.148Z,43.50
2022-08-07T20:02:52.001Z,44.16
2022-08-07T20:05:28.676Z,42.79
2022-08-07T20:08:06.695Z,41.29
2022-08-07T20:10:55.031Z,44.99
2022-08-07T20:13:46.472Z,45.30
2022-08-07T20:16:36.982Z,42.60
2022-08-07T20:19:09.969Z,43.92
2022-08-07T20:21:47.141Z,42.40
2022-08-07T20:24:35.630Z,42.16
2022-08-07T20:27:11.672Z,44.95
2022-08-07T20:29:56.743Z,41.47
2022-08-07T20:32:49.748Z,43.82
2022-08-07T20:35:27.099Z,41.63
2022-08-07T20:38:00.866Z,43.53
2022-08-07T20:40:34.898Z,43.12
2022-08-07T20:43:14.507Z,44.04
2022-08-07T20:46:29.107Z,44.23
2022-08-07T20:48:58.178Z,43.06
2022-08-07T20:51:40.572Z,42.99
2022-08-07T20:54:30.272Z,42.91
2022-08-07T20:57:10.397Z,44.66
2022-08-07T21:00:05.675Z,41.09
2022-08-07T21:02:53.836Z,42.24
2022-08-07T21:05:42.963Z,41.19
2022-08-07T21:08:20.717Z,42.87
2022-08-07T21:11:10.468Z,42.76
2022-08-07T21:13:43.700Z,43.34
2022-08-07T21:16:31.857Z,42.67
2022-08-07T21:19:01.655Z,41.50
2022-08-07T21:21:49.314Z,43.14
2022-08-07T21:24:48.016Z,41.49
2022-08-07T21:27:40.157Z,41.12
2022-08-07T21:30:19.125Z,41.51
2022-08-07T21:32:53.586Z,40.95
2022-08-07T21:36:06.595Z,42.79
2022-08-07T21:38:50.364Z,41.23
2022-08-07T21:41:38.427Z,42.24
2022-08-07T21:44:25.382Z,42.97
2022-08-07T21:47:17.378Z,42.36
2022-08-07T21:50:05.035Z,40.59
2022-08-07T21:52:49.550Z,40.73
2022-08-07T21:55:30.158Z,39.37
2022-08-07T21:58:32.810Z,41.67
2022-08-07T22:01:14.479Z,40.53
2022-08-07T22:03:56.382Z,40.21
2022-08-07T22:06:34.847Z,40.93
2022-08-07T22:09:12.797Z,41.05
2022-08-07T22:12:05.685Z,41.80
2022-08-07T22:14:59.737Z,42.95
2022-08-07T22:17:38.028Z,42.08
2022-08-07T22:20:36.180Z,39.91
2022-08-07T22:23:42.306Z,42.29
2022-08-07T22:26:22.705Z,42.24
2022-08-07T22:29:33.911Z,40.19
2022-08-07T22:32:23.361Z,42.50
2022-08-07T22:35:02.962Z,40.21
2022-08-07T22:38:01.803Z,40.40
2022-08-07T22:40:52.376Z,42.09
2022-08-07T22:43:38.399Z,40.36
2022-08-07T22:47:02.266Z,40.31
2022-08-07T22:49:54.077Z,39.71
2022-08-07T22:52:57.710Z,40.10
2022-08-07T22:56:08.579Z,42.19
2022-08-07T22:59:14.355Z,39.32
2022-08-07T23:02:27.487Z,39.09
2022-08-07T23:06:08.527Z,39.95
2022-08-07T23:08:23.870Z,39.01
2022-08-07T23:11:41.304Z,39.44
2022-08-07T23:14:30.518Z,38.53
2022-08-07T23:17:20.999Z,40.02
2022-08-07T23:20:51.419Z,40.30
2022-08-07T23:24:06.156Z,41.52
2022-08-07T23:26:28.728Z,39.11
2022-08-07T23:29:42.627Z,40.26
2022-08-07T23:34:19.444Z,38.38
2022-08-07T23:35:37.601Z,40.45
2022-08-07T23:38:19.435Z,39.38
2022-08-07T23:41:14.597Z,39.87
2022-08-07T23:44:05.364Z,39.08
2022-08-07T23:46:52.810Z,39.63
2022-08-07T23:49:54.887Z,41.47
2022-08-07T23:53:08.780Z,38.54
2022-08-07T23:55:55.467Z,38.49
